createdAt,value
2018-07-22T00:00:01.810Z,21.1
2018-07-22T00:05:01.564Z,21
2018-07-22T00:10:01.643Z,20.9
2018-07-22T00:15:01.480Z,20.9
2018-07-22T00:20:01.823Z,21
2018-07-22T00:25:03.428Z,21
2018-07-22T00:30:01.397Z,21
2018-07-22T00:35:02.355Z,20.9
2018-07-22T00:40:02.372Z,20.9
2018-07-22T00:45:02.106Z,20.9
2018-07-22T00:50:01.736Z,20.8
2018-07-22T00:55:02.045Z,20.8
2018-07-22T01:00:02.053Z,20.8
2018-07-22T01:05:02.025Z,20.7
2018-07-22T01:10:01.744Z,20.8
2018-07-22T01:15:01.836Z,20.8
2018-07-22T01:20:02.486Z,20.7
2018-07-22T01:25:02.055Z,20.7
2018-07-22T01:30:01.982Z,20.6
2018-07-22T01:35:01.840Z,20.6
2018-07-22T01:40:02.054Z,20.6
2018-07-22T01:45:01.537Z,20.5
2018-07-22T01:50:01.784Z,20.5
2018-07-22T01:55:01.835Z,20.3
2018-07-22T02:00:01.357Z,20.2
2018-07-22T02:05:02.068Z,20.2
2018-07-22T02:10:02.297Z,20.1
2018-07-22T02:15:01.745Z,20.1
2018-07-22T02:20:01.193Z,20.1
2018-07-22T02:25:02.540Z,20.1
2018-07-22T02:30:01.645Z,20
2018-07-22T02:35:01.283Z,20
2018-07-22T02:40:01.189Z,20.1
2018-07-22T02:45:02.214Z,20.1
2018-07-22T02:50:01.444Z,19.9
2018-07-22T02:55:01.710Z,19.9
2018-07-22T03:00:02.028Z,19.9
2018-07-22T03:05:01.700Z,19.9
2018-07-22T03:10:01.928Z,19.9
2018-07-22T03:15:01.362Z,19.9
2018-07-22T03:20:01.969Z,20
2018-07-22T03:25:01.302Z,20.1
2018-07-22T03:30:01.635Z,20.1
2018-07-22T03:35:01.851Z,20.1
2018-07-22T03:40:01.957Z,20.1
2018-07-22T03:45:01.848Z,20.2
2018-07-22T03:50:02.422Z,20.2
2018-07-22T03:55:01.995Z,20.1
2018-07-22T04:00:01.372Z,20.1
2018-07-22T04:05:01.653Z,20.1
2018-07-22T04:10:02.102Z,20.2
2018-07-22T04:15:01.805Z,20.3
2018-07-22T04:20:01.399Z,20.2
2018-07-22T04:25:01.564Z,20.3
2018-07-22T04:30:02.025Z,20.3
2018-07-22T04:35:01.842Z,20.4
2018-07-22T04:40:02.139Z,20.6
2018-07-22T04:45:01.983Z,20.7
2018-07-22T04:50:01.357Z,21.2
2018-07-22T04:55:02.103Z,21.1
2018-07-22T05:00:01.555Z,21.1
2018-07-22T05:05:01.698Z,21
2018-07-22T05:10:01.928Z,21
2018-07-22T05:15:02.113Z,21
2018-07-22T05:20:01.316Z,21.1
2018-07-22T05:25:01.977Z,21.2
2018-07-22T05:30:01.396Z,21.3
2018-07-22T05:35:01.400Z,21.4
2018-07-22T05:40:01.911Z,21.6
2018-07-22T05:45:01.516Z,21.8
2018-07-22T05:50:02.089Z,22.1
2018-07-22T05:55:02.503Z,22.3
2018-07-22T06:00:01.912Z,22.4
2018-07-22T06:05:01.947Z,22.9
2018-07-22T06:10:01.947Z,23.3
2018-07-22T06:15:02.145Z,23.6
2018-07-22T06:20:01.605Z,23.7
2018-07-22T06:25:02.072Z,23.7
2018-07-22T06:30:01.911Z,23.8
2018-07-22T06:35:01.349Z,23.9
2018-07-22T06:40:02.212Z,23.9
2018-07-22T06:45:01.212Z,24.2
2018-07-22T06:50:02.082Z,24.3
2018-07-22T06:55:01.361Z,24.3
2018-07-22T07:00:01.338Z,24.4
2018-07-22T07:05:02.077Z,25
2018-07-22T07:10:02.240Z,25.1
2018-07-22T07:15:01.784Z,25.5
2018-07-22T07:20:02.061Z,25.6
2018-07-22T07:25:02.646Z,25.4
2018-07-22T07:30:02.164Z,25.6
2018-07-22T07:35:01.162Z,25.7
2018-07-22T07:40:01.423Z,25.8
2018-07-22T07:45:02.381Z,25.9
2018-07-22T07:50:01.893Z,26.1
2018-07-22T07:55:01.422Z,26.1
2018-07-22T08:00:02.008Z,26
2018-07-22T08:05:02.086Z,26.1
2018-07-22T08:10:01.716Z,26.1
2018-07-22T08:15:01.803Z,26.2
2018-07-22T08:20:01.378Z,26.4
2018-07-22T08:25:02.405Z,26.5
2018-07-22T08:30:01.879Z,26.7
2018-07-22T08:35:01.464Z,26.6
2018-07-22T08:40:01.359Z,27.1
2018-07-22T08:45:01.805Z,27.3
2018-07-22T08:50:01.567Z,27.7
2018-07-22T08:55:01.675Z,27.6
2018-07-22T09:00:01.744Z,27.6
2018-07-22T09:05:01.978Z,27.9
2018-07-22T09:10:02.112Z,28.4
2018-07-22T09:15:01.218Z,28.5
2018-07-22T09:20:02.018Z,28.7
2018-07-22T09:25:01.361Z,29
2018-07-22T09:30:01.867Z,29.7
2018-07-22T09:35:01.638Z,29.9
2018-07-22T09:40:01.470Z,30.2
2018-07-22T09:45:01.532Z,30.7
2018-07-22T09:50:01.852Z,31.2
2018-07-22T09:55:01.875Z,31.2
2018-07-22T10:00:01.385Z,31.4
2018-07-22T10:05:02.134Z,32.1
2018-07-22T10:10:01.311Z,32.3
2018-07-22T10:15:01.283Z,32.2
2018-07-22T10:20:02.531Z,32.4
2018-07-22T10:25:01.328Z,32.8
2018-07-22T10:30:01.869Z,33
2018-07-22T10:35:01.970Z,33.1
2018-07-22T10:40:02.304Z,33.3
2018-07-22T10:45:01.880Z,33.6
2018-07-22T10:50:01.914Z,33.5
2018-07-22T10:55:01.895Z,33.7
2018-07-22T11:00:01.926Z,33.7
2018-07-22T11:05:01.287Z,33.7
2018-07-22T11:10:01.313Z,33.5
2018-07-22T11:15:01.663Z,33.4
2018-07-22T11:20:01.671Z,33.7
2018-07-22T11:25:01.658Z,34
2018-07-22T11:30:01.589Z,33.5
2018-07-22T11:35:01.252Z,33.7
2018-07-22T11:40:02.059Z,33.9
2018-07-22T11:45:01.490Z,34.3
2018-07-22T11:50:01.562Z,34.2
2018-07-22T11:55:01.360Z,33.7
2018-07-22T12:00:02.088Z,33.2
2018-07-22T12:05:01.572Z,32.7
2018-07-22T12:10:01.601Z,32.8
2018-07-22T12:15:01.605Z,32.8
2018-07-22T12:20:01.354Z,32.5
2018-07-22T12:25:01.914Z,32.2
2018-07-22T12:30:01.942Z,32.3
2018-07-22T12:35:01.645Z,32.2
2018-07-22T12:40:01.436Z,31.9
2018-07-22T12:45:02.283Z,31.4
2018-07-22T12:50:01.299Z,31
2018-07-22T12:55:01.649Z,31
2018-07-22T13:00:02.006Z,31
2018-07-22T13:05:01.620Z,31.1
2018-07-22T13:10:01.411Z,31.4
2018-07-22T13:15:01.576Z,31.2
2018-07-22T13:20:01.945Z,31.9
2018-07-22T13:25:01.688Z,32.5
2018-07-22T13:30:01.806Z,32.2
2018-07-22T13:35:01.541Z,31.6
2018-07-22T13:40:01.596Z,31.3
2018-07-22T13:45:01.856Z,31.4
2018-07-22T13:50:01.886Z,31.8
2018-07-22T13:55:02.039Z,31.9
2018-07-22T14:00:01.711Z,31.4
2018-07-22T14:05:01.932Z,30.9
2018-07-22T14:10:01.851Z,30.7
2018-07-22T14:15:01.813Z,31.1
2018-07-22T14:20:02.047Z,31
2018-07-22T14:25:01.232Z,30.9
2018-07-22T14:30:01.727Z,31.5
2018-07-22T14:35:01.709Z,32.5
2018-07-22T14:40:01.464Z,32.9
2018-07-22T14:45:02.183Z,33
2018-07-22T14:50:01.353Z,33.4
2018-07-22T14:55:02.253Z,33.5
2018-07-22T15:00:01.560Z,33.4
2018-07-22T15:05:01.474Z,33.4
2018-07-22T15:10:01.403Z,33.4
2018-07-22T15:15:02.069Z,33.5
2018-07-22T15:20:01.736Z,33.2
2018-07-22T15:25:01.734Z,33.2
2018-07-22T15:30:01.455Z,32.8
2018-07-22T15:35:01.506Z,32.8
2018-07-22T15:40:01.649Z,32.6
2018-07-22T15:45:01.827Z,32.4
2018-07-22T15:50:01.762Z,32.2
2018-07-22T15:55:01.844Z,32.1
2018-07-22T16:00:01.878Z,32.1
2018-07-22T16:05:01.375Z,31.9
2018-07-22T16:10:01.411Z,31.8
2018-07-22T16:15:01.835Z,31.7
2018-07-22T16:20:01.530Z,31.4
2018-07-22T16:25:01.460Z,31.1
2018-07-22T16:30:02.142Z,31.1
2018-07-22T16:35:01.356Z,31.1
2018-07-22T16:40:01.402Z,30.9
2018-07-22T16:45:01.195Z,30.6
2018-07-22T16:50:01.797Z,30.4
2018-07-22T16:55:01.995Z,30.1
2018-07-22T17:00:01.650Z,30
2018-07-22T17:05:02.376Z,29.7
2018-07-22T17:10:01.428Z,29.4
2018-07-22T17:15:01.563Z,29.3
2018-07-22T17:20:01.498Z,29.4
2018-07-22T17:25:01.481Z,29.2
2018-07-22T17:30:01.960Z,29.1
2018-07-22T17:35:01.346Z,28.9
2018-07-22T17:40:01.501Z,28.7
2018-07-22T17:45:01.345Z,28.2
2018-07-22T17:55:01.976Z,27.3
2018-07-22T18:00:01.657Z,27.3
2018-07-22T18:05:01.703Z,26.9
2018-07-22T18:10:02.060Z,26.7
2018-07-22T18:15:01.851Z,26.3
2018-07-22T18:20:01.657Z,26
2018-07-22T18:25:01.880Z,25.7
2018-07-22T18:30:02.143Z,25.4
2018-07-22T18:35:01.838Z,25.2
2018-07-22T18:40:02.226Z,25
2018-07-22T18:45:01.792Z,24.9
2018-07-22T18:50:01.900Z,24.7
2018-07-22T18:55:01.365Z,24.3
2018-07-22T19:00:02.185Z,24.2
2018-07-22T19:05:02.019Z,23.9
2018-07-22T19:10:02.124Z,23.7
2018-07-22T19:15:01.877Z,23.5
2018-07-22T19:20:02.294Z,23.3
2018-07-22T19:25:01.230Z,23.3
2018-07-22T19:30:01.575Z,23.2
2018-07-22T19:35:01.747Z,22.9
2018-07-22T19:40:02.005Z,22.8
2018-07-22T19:45:01.847Z,22.7
2018-07-22T19:50:01.645Z,22.5
2018-07-22T19:55:02.342Z,22.4
2018-07-22T20:00:01.848Z,22.3
2018-07-22T20:05:01.856Z,22.1
2018-07-22T20:10:01.868Z,22
2018-07-22T20:15:02.019Z,22
2018-07-22T20:20:02.037Z,21.9
2018-07-22T20:25:02.070Z,21.8
2018-07-22T20:30:01.772Z,21.6
2018-07-22T20:35:01.922Z,21.5
2018-07-22T20:40:02.034Z,21.3
2018-07-22T20:45:02.158Z,21.2
2018-07-22T20:50:01.874Z,21.1
2018-07-22T20:55:02.107Z,20.9
2018-07-22T21:00:01.347Z,20.8
2018-07-22T21:05:01.950Z,20.8
2018-07-22T21:10:01.782Z,20.7
2018-07-22T21:15:01.527Z,20.6
2018-07-22T21:20:01.905Z,20.4
2018-07-22T21:25:01.604Z,20.3
2018-07-22T21:30:02.244Z,20.2
2018-07-22T21:35:01.546Z,20.2
2018-07-22T21:40:02.150Z,20.1
2018-07-22T21:45:01.516Z,20
2018-07-22T21:50:01.596Z,19.8
2018-07-22T21:55:01.738Z,19.7
2018-07-22T22:00:01.901Z,19.6
2018-07-22T22:05:01.460Z,19.5
2018-07-22T22:10:01.857Z,19.3
2018-07-22T22:15:02.202Z,19.3
2018-07-22T22:20:01.578Z,19.1
2018-07-22T22:25:01.965Z,19.1
2018-07-22T22:30:02.666Z,19
2018-07-22T22:35:01.351Z,18.9
2018-07-22T22:40:01.846Z,18.8
2018-07-22T22:45:01.844Z,18.8
2018-07-22T22:50:02.071Z,18.7
2018-07-22T22:55:01.986Z,18.6
2018-07-22T23:00:02.072Z,18.6
2018-07-22T23:05:02.135Z,18.5
2018-07-22T23:10:02.071Z,18.5
2018-07-22T23:15:01.840Z,18.4
2018-07-22T23:20:01.493Z,18.4
2018-07-22T23:25:02.066Z,18.3
2018-07-22T23:30:02.060Z,18.3
2018-07-22T23:35:01.443Z,18.2
2018-07-22T23:40:01.618Z,18.2
2018-07-22T23:45:01.731Z,18.1
2018-07-22T23:50:01.981Z,18.1
2018-07-22T23:55:02.541Z,18
